createdAt,value
2023-03-16T00:02:06.475Z,61.70
2023-03-16T00:04:37.865Z,61.75
2023-03-16T00:07:10.634Z,62.17
2023-03-16T00:09:41.295Z,61.96
2023-03-16T00:12:17.362Z,61.75
2023-03-16T00:14:47.484Z,61.82
2023-03-16T00:17:20.980Z,62.08
2023-03-16T00:19:55.340Z,62.31
2023-03-16T00:22:28.830Z,62.38
2023-03-16T00:24:56.589Z,62.24
2023-03-16T00:27:26.360Z,62.30
2023-03-16T00:29:56.114Z,62.39
2023-03-16T00:32:29.562Z,62.29
2023-03-16T00:34:57.030Z,62.36
2023-03-16T00:37:26.683Z,62.33
2023-03-16T00:39:57.757Z,62.56
2023-03-16T00:42:30.423Z,62.59
2023-03-16T00:44:59.239Z,62.76
2023-03-16T00:47:29.938Z,62.76
2023-03-16T00:49:57.628Z,62.81
2023-03-16T00:52:27.348Z,62.42
2023-03-16T00:54:55.969Z,62.42
2023-03-16T00:57:25.777Z,62.54
2023-03-16T00:59:52.940Z,62.72
2023-03-16T01:02:23.652Z,63.02
2023-03-16T01:04:54.418Z,62.86
2023-03-16T01:07:21.995Z,62.75
2023-03-16T01:09:49.035Z,62.75
2023-03-16T01:12:19.303Z,62.76
2023-03-16T01:14:47.253Z,62.62
2023-03-16T01:17:17.267Z,63.04
2023-03-16T01:19:45.270Z,63.00
2023-03-16T01:22:13.155Z,63.00
2023-03-16T01:24:41.256Z,63.06
2023-03-16T01:27:09.189Z,62.93
2023-03-16T01:29:37.816Z,63.04
2023-03-16T01:32:05.796Z,63.13
2023-03-16T01:34:34.336Z,63.21
2023-03-16T01:37:01.865Z,63.44
2023-03-16T01:39:28.933Z,63.37
2023-03-16T01:41:55.954Z,63.47
2023-03-16T01:44:30.668Z,63.14
2023-03-16T01:46:58.271Z,63.70
2023-03-16T01:49:36.914Z,63.44
2023-03-16T01:52:22.595Z,63.62
2023-03-16T01:55:00.736Z,63.95
2023-03-16T01:57:35.393Z,63.62
2023-03-16T02:00:19.999Z,63.52
2023-03-16T02:02:56.447Z,63.61
2023-03-16T02:05:54.671Z,63.68
2023-03-16T02:08:23.106Z,63.63
2023-03-16T02:10:54.757Z,63.61
2023-03-16T02:13:24.660Z,63.72
2023-03-16T02:15:53.687Z,63.41
2023-03-16T02:18:23.160Z,63.69
2023-03-16T02:21:12.081Z,63.48
2023-03-16T02:23:39.132Z,63.59
2023-03-16T02:26:33.747Z,63.40
2023-03-16T02:29:39.833Z,63.61
2023-03-16T02:32:07.124Z,63.54
2023-03-16T02:34:35.263Z,63.72
2023-03-16T02:37:03.521Z,63.56
2023-03-16T02:39:30.608Z,63.41
2023-03-16T02:41:57.902Z,63.42
2023-03-16T02:44:36.992Z,63.83
2023-03-16T02:47:11.362Z,64.02
2023-03-16T02:49:42.217Z,63.82
2023-03-16T02:52:09.914Z,63.84
2023-03-16T02:54:37.163Z,64.12
2023-03-16T02:57:05.315Z,64.18
2023-03-16T02:59:32.338Z,64.03
2023-03-16T03:01:59.539Z,63.86
2023-03-16T03:04:26.568Z,64.07
2023-03-16T03:06:53.661Z,64.15
2023-03-16T03:09:20.985Z,64.08
2023-03-16T03:11:48.080Z,64.86
2023-03-16T03:14:16.884Z,65.10
2023-03-16T03:16:46.891Z,65.37
2023-03-16T03:19:14.266Z,65.62
2023-03-16T03:21:41.837Z,65.22
2023-03-16T03:24:10.110Z,65.64
2023-03-16T03:26:40.716Z,65.95
2023-03-16T03:29:07.749Z,66.07
2023-03-16T03:31:35.648Z,65.97
2023-03-16T03:34:06.660Z,66.13
2023-03-16T03:36:35.227Z,66.11
2023-03-16T03:39:05.199Z,66.53
2023-03-16T03:41:33.646Z,66.67
2023-03-16T03:44:01.015Z,66.56
2023-03-16T03:46:28.555Z,66.66
2023-03-16T03:48:55.768Z,66.80
2023-03-16T03:51:22.831Z,66.97
2023-03-16T03:53:50.021Z,66.71
2023-03-16T03:56:17.043Z,67.18
2023-03-16T03:58:44.170Z,67.13
2023-03-16T04:01:11.201Z,67.12
2023-03-16T04:03:38.202Z,67.25
2023-03-16T04:06:07.311Z,67.55
2023-03-16T04:08:35.635Z,67.10
2023-03-16T04:11:02.685Z,67.13
2023-03-16T04:13:30.025Z,67.57
2023-03-16T04:15:59.249Z,67.76
2023-03-16T04:18:26.369Z,67.33
2023-03-16T04:20:53.414Z,67.45
2023-03-16T04:23:21.883Z,67.75
2023-03-16T04:25:48.861Z,68.02
2023-03-16T04:28:18.016Z,67.99
2023-03-16T04:30:45.178Z,68.25
2023-03-16T04:33:12.227Z,68.22
2023-03-16T04:35:39.294Z,68.32
2023-03-16T04:38:06.386Z,68.07
2023-03-16T04:40:33.373Z,68.05
2023-03-16T04:43:00.356Z,68.64
2023-03-16T04:45:27.472Z,68.62
2023-03-16T04:47:54.594Z,68.96
2023-03-16T04:50:22.821Z,69.06
2023-03-16T04:52:49.975Z,68.88
2023-03-16T04:55:17.801Z,69.03
2023-03-16T04:57:44.786Z,69.26
2023-03-16T05:00:23.406Z,68.81
2023-03-16T05:02:54.582Z,69.20
2023-03-16T05:05:22.404Z,69.36
2023-03-16T05:07:50.304Z,69.39
2023-03-16T05:10:19.258Z,69.18
2023-03-16T05:12:46.336Z,69.15
2023-03-16T05:15:14.168Z,68.82
2023-03-16T05:17:42.501Z,67.72
2023-03-16T05:20:16.223Z,62.63
2023-03-16T05:22:46.501Z,57.01
2023-03-16T05:25:15.263Z,53.17
2023-03-16T05:27:44.455Z,50.48
2023-03-16T05:30:13.697Z,47.48
2023-03-16T05:32:40.937Z,45.22
2023-03-16T05:35:10.100Z,43.49
2023-03-16T05:37:38.209Z,41.58
2023-03-16T05:40:17.395Z,40.07
2023-03-16T05:42:50.548Z,38.44
2023-03-16T05:45:18.228Z,37.08
2023-03-16T05:47:45.224Z,36.06
2023-03-16T05:50:14.432Z,34.88
2023-03-16T05:52:41.611Z,33.82
2023-03-16T05:55:09.850Z,33.02
2023-03-16T05:57:36.973Z,31.83
2023-03-16T06:00:16.752Z,30.90
2023-03-16T06:02:49.424Z,30.06
2023-03-16T06:05:19.178Z,29.32
2023-03-16T06:07:46.219Z,29.94
2023-03-16T06:10:14.629Z,31.64
2023-03-16T06:12:42.128Z,32.68
2023-03-16T06:15:11.379Z,33.06
2023-03-16T06:17:40.997Z,34.21
2023-03-16T06:20:11.438Z,36.18
2023-03-16T06:22:41.569Z,38.33
2023-03-16T06:25:10.249Z,38.19
2023-03-16T06:27:37.738Z,33.51
2023-03-16T06:30:12.089Z,30.16
2023-03-16T06:32:42.367Z,28.29
2023-03-16T06:35:10.640Z,26.88
2023-03-16T06:37:38.115Z,25.50
2023-03-16T06:40:06.459Z,25.04
2023-03-16T06:42:33.724Z,24.48
2023-03-16T06:45:00.988Z,23.99
2023-03-16T06:47:28.070Z,22.83
2023-03-16T06:49:55.402Z,22.38
2023-03-16T06:52:22.796Z,22.04
2023-03-16T06:54:49.993Z,21.80
2023-03-16T06:57:18.058Z,21.21
2023-03-16T06:59:45.158Z,20.44
2023-03-16T07:02:15.343Z,20.40
2023-03-16T07:04:42.534Z,19.91
2023-03-16T07:07:11.719Z,19.25
2023-03-16T07:09:41.536Z,19.17
2023-03-16T07:12:10.057Z,18.82
2023-03-16T07:14:37.551Z,18.68
2023-03-16T07:17:04.997Z,18.32
2023-03-16T07:19:32.268Z,18.46
2023-03-16T07:21:59.568Z,18.29
2023-03-16T07:24:26.673Z,17.78
2023-03-16T07:26:53.867Z,17.52
2023-03-16T07:29:20.881Z,17.37
2023-03-16T07:31:48.251Z,18.03
2023-03-16T07:34:15.380Z,17.76
2023-03-16T07:36:42.428Z,17.90
2023-03-16T07:39:09.881Z,17.38
2023-03-16T07:41:36.916Z,17.13
2023-03-16T07:44:04.324Z,16.84
2023-03-16T07:46:32.809Z,17.98
2023-03-16T07:48:59.966Z,17.82
2023-03-16T07:51:26.966Z,17.95
2023-03-16T07:53:54.098Z,17.90
2023-03-16T07:56:21.624Z,18.60
2023-03-16T07:58:48.673Z,19.29
2023-03-16T08:01:15.750Z,19.15
2023-03-16T08:03:43.010Z,19.37
2023-03-16T08:06:10.639Z,19.08
2023-03-16T08:08:37.703Z,19.77
2023-03-16T08:11:04.851Z,19.68
2023-03-16T08:13:31.871Z,20.34
2023-03-16T08:16:02.129Z,20.31
2023-03-16T08:18:31.019Z,21.27
2023-03-16T08:20:58.715Z,21.39
2023-03-16T08:23:26.226Z,20.90
2023-03-16T08:25:58.010Z,21.00
2023-03-16T08:28:26.087Z,20.80
2023-03-16T08:30:55.604Z,20.77
2023-03-16T08:33:23.522Z,20.92
2023-03-16T08:35:50.820Z,21.48
2023-03-16T08:38:19.324Z,20.98
2023-03-16T08:40:49.691Z,21.44
2023-03-16T08:43:19.119Z,21.41
2023-03-16T08:45:46.711Z,21.39
2023-03-16T08:48:14.411Z,21.49
2023-03-16T08:50:44.289Z,21.71
2023-03-16T08:53:13.600Z,21.28
2023-03-16T08:55:41.950Z,21.60
2023-03-16T08:58:10.469Z,21.08
2023-03-16T09:00:38.352Z,21.06
2023-03-16T09:03:06.438Z,21.15
2023-03-16T09:05:34.157Z,20.97
2023-03-16T09:08:01.695Z,20.36
2023-03-16T09:10:29.096Z,20.28
2023-03-16T09:12:56.785Z,20.52
2023-03-16T09:15:24.077Z,20.60
2023-03-16T09:17:51.151Z,20.44
2023-03-16T09:20:34.570Z,20.46
2023-03-16T09:23:01.854Z,20.33
2023-03-16T09:25:29.140Z,19.88
2023-03-16T09:27:56.377Z,19.97
2023-03-16T09:30:23.428Z,20.15
2023-03-16T09:32:50.872Z,21.20
2023-03-16T09:35:18.202Z,21.99
2023-03-16T09:38:01.198Z,21.95
2023-03-16T09:40:33.488Z,21.59
2023-03-16T09:43:35.937Z,20.91
2023-03-16T09:46:36.800Z,21.12
2023-03-16T09:49:06.525Z,20.96
2023-03-16T09:51:49.802Z,20.89
2023-03-16T09:55:07.208Z,20.64
2023-03-16T09:57:40.612Z,20.89
2023-03-16T10:00:34.252Z,20.76
2023-03-16T10:03:08.276Z,20.66
2023-03-16T10:05:37.296Z,20.55
2023-03-16T10:08:22.438Z,21.17
2023-03-16T10:11:02.235Z,21.15
2023-03-16T10:13:48.508Z,21.81
2023-03-16T10:16:23.984Z,22.37
2023-03-16T10:19:18.713Z,22.75
2023-03-16T10:21:46.948Z,22.73
2023-03-16T10:24:28.660Z,22.98
2023-03-16T10:27:01.203Z,23.64
2023-03-16T10:29:36.994Z,24.62
2023-03-16T10:32:16.620Z,25.19
2023-03-16T10:34:58.750Z,25.88
2023-03-16T10:37:30.032Z,26.71
2023-03-16T10:39:57.384Z,27.42
2023-03-16T10:42:25.110Z,27.34
2023-03-16T10:45:01.775Z,27.25
2023-03-16T10:47:33.656Z,27.50
2023-03-16T10:50:14.405Z,26.73
2023-03-16T10:52:47.006Z,27.01
2023-03-16T10:55:26.945Z,26.97
2023-03-16T10:57:56.314Z,26.87
2023-03-16T11:00:34.641Z,26.44
2023-03-16T11:03:12.555Z,26.55
2023-03-16T11:05:39.698Z,26.21
2023-03-16T11:08:13.643Z,26.02
2023-03-16T11:10:55.638Z,25.73
2023-03-16T11:13:35.304Z,25.21
2023-03-16T11:16:24.207Z,25.29
2023-03-16T11:19:04.140Z,25.51
2023-03-16T11:22:19.999Z,25.63
2023-03-16T11:25:20.432Z,26.53
2023-03-16T11:28:13.008Z,26.65
2023-03-16T11:31:02.983Z,27.13
2023-03-16T11:33:32.103Z,28.74
2023-03-16T11:36:20.435Z,29.24
2023-03-16T11:39:14.144Z,29.48
2023-03-16T11:42:09.580Z,30.41
2023-03-16T11:44:57.483Z,30.68
2023-03-16T11:48:04.304Z,31.00
2023-03-16T11:50:49.768Z,31.38
2023-03-16T11:53:25.549Z,31.06
2023-03-16T11:56:10.655Z,30.87
2023-03-16T11:59:14.266Z,31.19
2023-03-16T12:02:13.361Z,31.66
2023-03-16T12:05:33.666Z,31.76
2023-03-16T12:08:38.321Z,32.07
2023-03-16T12:11:40.949Z,32.47
2023-03-16T12:14:26.695Z,32.48
2023-03-16T12:17:15.862Z,32.51
2023-03-16T12:20:14.063Z,32.84
2023-03-16T12:22:59.952Z,33.04
2023-03-16T12:25:40.935Z,32.77
2023-03-16T12:28:27.730Z,32.71
2023-03-16T12:31:15.394Z,32.83
2023-03-16T12:34:09.057Z,32.67
2023-03-16T12:37:02.596Z,32.98
2023-03-16T12:40:09.173Z,33.03
2023-03-16T12:43:08.357Z,33.45
2023-03-16T12:46:11.810Z,33.53
2023-03-16T12:48:52.308Z,33.37
2023-03-16T12:51:19.434Z,33.50
2023-03-16T12:53:55.339Z,34.02
2023-03-16T12:56:44.697Z,34.11
2023-03-16T12:59:21.069Z,33.92
2023-03-16T13:02:03.670Z,33.54
2023-03-16T13:04:41.707Z,33.26
2023-03-16T13:07:22.769Z,33.49
2023-03-16T13:10:10.086Z,33.59
2023-03-16T13:12:41.799Z,33.67
2023-03-16T13:15:22.148Z,33.99
2023-03-16T13:18:04.601Z,34.23
2023-03-16T13:20:50.837Z,34.29
2023-03-16T13:23:22.350Z,34.64
2023-03-16T13:26:27.159Z,35.16
2023-03-16T13:28:55.499Z,35.33
2023-03-16T13:31:35.947Z,35.54
2023-03-16T13:34:06.921Z,35.61
2023-03-16T13:36:35.579Z,35.84
2023-03-16T13:39:23.385Z,35.63
2023-03-16T13:42:20.960Z,35.37
2023-03-16T13:44:48.568Z,35.74
2023-03-16T13:47:20.183Z,35.60
2023-03-16T13:49:55.929Z,35.44
2023-03-16T13:52:31.269Z,35.35
2023-03-16T13:55:01.953Z,35.43
2023-03-16T13:57:35.547Z,35.67
2023-03-16T14:00:26.624Z,35.40
2023-03-16T14:03:14.413Z,35.34
2023-03-16T14:05:41.643Z,35.81
2023-03-16T14:08:23.376Z,35.38
2023-03-16T14:10:53.570Z,35.66
2023-03-16T14:13:32.337Z,35.47
2023-03-16T14:16:15.365Z,35.62
2023-03-16T14:19:06.139Z,35.56
2023-03-16T14:21:34.776Z,35.32
2023-03-16T14:24:20.144Z,35.40
2023-03-16T14:26:48.408Z,35.58
2023-03-16T14:29:42.623Z,35.52
2023-03-16T14:32:30.320Z,35.61
2023-03-16T14:35:10.701Z,35.47
2023-03-16T14:37:38.396Z,35.61
2023-03-16T14:40:21.964Z,35.50
2023-03-16T14:42:49.272Z,35.44
2023-03-16T14:45:17.619Z,35.48
2023-03-16T14:47:48.453Z,35.64
2023-03-16T14:50:25.946Z,35.73
2023-03-16T14:52:56.562Z,35.78
2023-03-16T14:55:24.878Z,36.06
2023-03-16T14:57:51.929Z,36.32
2023-03-16T15:00:22.175Z,36.65
2023-03-16T15:03:08.181Z,36.76
2023-03-16T15:05:42.283Z,36.77
2023-03-16T15:08:43.518Z,37.09
2023-03-16T15:11:10.932Z,37.32
2023-03-16T15:13:58.218Z,36.91
2023-03-16T15:16:26.139Z,36.58
2023-03-16T15:18:53.302Z,36.21
2023-03-16T15:21:25.149Z,35.34
2023-03-16T15:23:52.315Z,35.29
2023-03-16T15:26:26.280Z,35.44
2023-03-16T15:28:57.279Z,35.67
2023-03-16T15:31:24.567Z,36.58
2023-03-16T15:33:51.713Z,37.02
2023-03-16T15:36:22.378Z,37.49
2023-03-16T15:38:53.224Z,37.83
2023-03-16T15:41:20.561Z,38.15
2023-03-16T15:43:47.611Z,38.08
2023-03-16T15:46:15.090Z,38.34
2023-03-16T15:48:44.475Z,37.85
2023-03-16T15:51:27.362Z,38.64
2023-03-16T15:54:01.885Z,38.76
2023-03-16T15:56:41.162Z,39.04
2023-03-16T15:59:17.013Z,39.72
2023-03-16T16:01:47.639Z,39.74
2023-03-16T16:04:19.871Z,40.12
2023-03-16T16:06:48.726Z,40.19
2023-03-16T16:09:16.430Z,40.74
2023-03-16T16:11:44.223Z,40.43
2023-03-16T16:14:16.214Z,40.61
2023-03-16T16:16:46.145Z,40.86
2023-03-16T16:19:18.925Z,41.31
2023-03-16T16:21:47.478Z,41.24
2023-03-16T16:24:15.643Z,41.59
2023-03-16T16:26:51.930Z,41.92
2023-03-16T16:29:24.525Z,41.90
2023-03-16T16:31:52.383Z,42.05
2023-03-16T16:34:24.530Z,42.26
2023-03-16T16:36:52.469Z,42.15
2023-03-16T16:39:20.664Z,42.22
2023-03-16T16:41:51.358Z,42.50
2023-03-16T16:44:27.431Z,42.76
2023-03-16T16:46:55.554Z,43.03
2023-03-16T16:49:31.243Z,43.09
2023-03-16T16:51:59.348Z,43.25
2023-03-16T16:54:31.111Z,43.38
2023-03-16T16:57:00.020Z,43.67
2023-03-16T16:59:37.042Z,43.84
2023-03-16T17:02:30.703Z,44.02
2023-03-16T17:04:57.946Z,43.96
2023-03-16T17:07:25.183Z,44.06
2023-03-16T17:09:52.280Z,44.02
2023-03-16T17:12:23.541Z,44.46
2023-03-16T17:14:51.690Z,44.37
2023-03-16T17:17:19.164Z,44.42
2023-03-16T17:19:48.248Z,44.88
2023-03-16T17:22:28.333Z,45.22
2023-03-16T17:24:55.656Z,45.07
2023-03-16T17:27:30.424Z,45.55
2023-03-16T17:29:58.587Z,45.67
2023-03-16T17:32:26.657Z,45.87
2023-03-16T17:34:54.255Z,46.01
2023-03-16T17:37:23.657Z,46.51
2023-03-16T17:39:52.056Z,46.98
2023-03-16T17:42:19.926Z,46.53
2023-03-16T17:44:53.239Z,46.54
2023-03-16T17:47:27.556Z,46.67
2023-03-16T17:49:56.945Z,46.72
2023-03-16T17:52:26.635Z,46.48
2023-03-16T17:54:54.832Z,46.54
2023-03-16T17:57:31.124Z,46.88
2023-03-16T18:00:00.823Z,47.27
2023-03-16T18:02:51.568Z,47.20
2023-03-16T18:05:28.768Z,47.19
2023-03-16T18:08:01.313Z,47.35
2023-03-16T18:10:31.327Z,47.85
2023-03-16T18:13:30.149Z,47.87
2023-03-16T18:15:58.808Z,47.71
2023-03-16T18:18:29.609Z,48.15
2023-03-16T18:21:00.454Z,48.02
2023-03-16T18:23:33.661Z,48.25
2023-03-16T18:26:03.395Z,48.78
2023-03-16T18:28:32.657Z,48.79
2023-03-16T18:31:00.496Z,48.71
2023-03-16T18:33:37.382Z,49.02
2023-03-16T18:36:17.754Z,49.05
2023-03-16T18:38:50.596Z,49.05
2023-03-16T18:41:28.365Z,49.51
2023-03-16T18:44:16.845Z,49.34
2023-03-16T18:46:44.830Z,49.55
2023-03-16T18:49:36.205Z,49.75
2023-03-16T18:52:12.626Z,50.02
2023-03-16T18:54:40.055Z,50.15
2023-03-16T18:57:18.793Z,50.26
2023-03-16T18:59:46.633Z,50.08
2023-03-16T19:02:23.018Z,50.39
2023-03-16T19:04:50.298Z,50.48
2023-03-16T19:07:32.496Z,50.47
2023-03-16T19:10:05.478Z,50.72
2023-03-16T19:12:32.641Z,50.92
2023-03-16T19:14:59.628Z,50.78
2023-03-16T19:17:26.804Z,50.87
2023-03-16T19:19:53.976Z,51.17
2023-03-16T19:22:21.927Z,51.35
2023-03-16T19:24:55.094Z,51.48
2023-03-16T19:27:29.049Z,51.94
2023-03-16T19:29:56.749Z,51.62
2023-03-16T19:32:24.005Z,52.02
2023-03-16T19:34:51.431Z,52.06
2023-03-16T19:37:19.856Z,52.11
2023-03-16T19:39:50.108Z,52.66
2023-03-16T19:42:33.882Z,52.74
2023-03-16T19:45:01.163Z,52.68
2023-03-16T19:47:35.005Z,52.89
2023-03-16T19:50:02.034Z,53.01
2023-03-16T19:52:31.401Z,53.02
2023-03-16T19:54:58.590Z,53.25
2023-03-16T19:57:26.567Z,53.71
2023-03-16T19:59:57.769Z,53.58
2023-03-16T20:02:39.093Z,53.54
2023-03-16T20:05:21.464Z,53.36
2023-03-16T20:07:48.854Z,53.61
2023-03-16T20:10:26.056Z,53.34
2023-03-16T20:12:57.598Z,53.41
2023-03-16T20:15:32.716Z,53.31
2023-03-16T20:18:00.276Z,53.34
2023-03-16T20:20:30.994Z,53.22
2023-03-16T20:22:59.764Z,53.66
2023-03-16T20:25:33.100Z,53.41
2023-03-16T20:28:02.197Z,53.43
2023-03-16T20:30:30.867Z,53.87
2023-03-16T20:32:58.299Z,53.52
2023-03-16T20:35:29.476Z,53.42
2023-03-16T20:37:57.091Z,53.39
2023-03-16T20:40:24.510Z,53.53
2023-03-16T20:42:52.362Z,53.61
2023-03-16T20:45:27.821Z,53.34
2023-03-16T20:47:55.381Z,53.38
2023-03-16T20:50:30.763Z,53.30
2023-03-16T20:52:57.977Z,53.35
2023-03-16T20:55:29.085Z,53.44
2023-03-16T20:57:57.512Z,53.32
2023-03-16T21:00:38.846Z,53.44
2023-03-16T21:03:22.407Z,53.20
2023-03-16T21:05:54.034Z,53.07
2023-03-16T21:08:21.553Z,53.25
2023-03-16T21:10:51.388Z,53.22
2023-03-16T21:13:29.597Z,52.95
2023-03-16T21:16:00.351Z,52.83
2023-03-16T21:18:27.930Z,52.81
2023-03-16T21:20:56.289Z,53.13
2023-03-16T21:23:24.301Z,53.08
2023-03-16T21:25:56.780Z,52.97
2023-03-16T21:28:26.708Z,52.95
2023-03-16T21:30:57.517Z,52.89
2023-03-16T21:33:38.949Z,53.36
2023-03-16T21:36:17.196Z,53.17
2023-03-16T21:38:46.817Z,53.25
2023-03-16T21:41:14.968Z,53.30
2023-03-16T21:43:43.106Z,53.56
2023-03-16T21:46:19.931Z,53.28
2023-03-16T21:48:58.110Z,53.58
2023-03-16T21:51:33.596Z,53.97
2023-03-16T21:54:01.731Z,53.82
2023-03-16T21:56:29.060Z,53.97
2023-03-16T21:58:56.186Z,54.06
2023-03-16T22:01:27.790Z,54.14
2023-03-16T22:04:01.795Z,54.07
2023-03-16T22:06:29.774Z,54.54
2023-03-16T22:08:59.732Z,54.46
2023-03-16T22:11:31.409Z,55.07
2023-03-16T22:13:59.628Z,55.73
2023-03-16T22:16:31.598Z,56.27
2023-03-16T22:18:59.017Z,56.08
2023-03-16T22:21:40.372Z,55.87
2023-03-16T22:24:23.629Z,56.05
2023-03-16T22:26:51.432Z,55.97
2023-03-16T22:29:29.121Z,56.74
2023-03-16T22:32:07.366Z,56.96
2023-03-16T22:34:48.402Z,57.04
2023-03-16T22:37:23.104Z,57.55
2023-03-16T22:39:50.767Z,57.59
2023-03-16T22:42:31.379Z,57.27
2023-03-16T22:44:58.694Z,57.31
2023-03-16T22:47:32.327Z,57.42
2023-03-16T22:49:59.659Z,57.50
2023-03-16T22:52:32.759Z,57.80
2023-03-16T22:55:01.808Z,57.73
2023-03-16T22:57:29.545Z,57.88
2023-03-16T22:59:57.399Z,58.07
2023-03-16T23:02:26.402Z,58.11
2023-03-16T23:04:53.449Z,58.21
2023-03-16T23:07:20.519Z,58.37
2023-03-16T23:09:48.535Z,58.84
2023-03-16T23:12:21.462Z,59.08
2023-03-16T23:14:48.710Z,59.04
2023-03-16T23:17:25.227Z,59.25
2023-03-16T23:19:52.288Z,59.26
2023-03-16T23:22:19.410Z,59.31
2023-03-16T23:24:46.422Z,59.39
2023-03-16T23:27:22.864Z,59.47
2023-03-16T23:29:50.070Z,59.50
2023-03-16T23:32:17.276Z,59.58
2023-03-16T23:34:44.661Z,59.64
2023-03-16T23:37:11.974Z,59.62
2023-03-16T23:39:39.847Z,59.90
2023-03-16T23:42:07.231Z,59.92
2023-03-16T23:44:34.775Z,60.10
2023-03-16T23:47:02.330Z,59.91
2023-03-16T23:49:32.967Z,60.09
2023-03-16T23:52:01.869Z,60.53
2023-03-16T23:54:31.732Z,60.30
2023-03-16T23:56:59.373Z,60.55
2023-03-16T23:59:26.715Z,60.36
